createdAt,value
2023-02-12T00:00:52.211Z,4.58
2023-02-12T00:03:19.035Z,4.63
2023-02-12T00:05:46.057Z,4.68
2023-02-12T00:08:14.430Z,4.66
2023-02-12T00:10:43.266Z,4.66
2023-02-12T00:13:14.038Z,4.71
2023-02-12T00:15:42.510Z,4.58
2023-02-12T00:18:09.339Z,4.66
2023-02-12T00:20:39.328Z,4.63
2023-02-12T00:23:06.734Z,4.74
2023-02-12T00:25:37.969Z,4.67
2023-02-12T00:28:04.675Z,4.59
2023-02-12T00:30:31.420Z,4.49
2023-02-12T00:32:58.131Z,4.51
2023-02-12T00:35:25.061Z,4.48
2023-02-12T00:37:52.270Z,4.47
2023-02-12T00:40:22.700Z,4.54
2023-02-12T00:42:52.776Z,4.56
2023-02-12T00:45:20.266Z,4.40
2023-02-12T00:47:47.068Z,4.37
2023-02-12T00:50:13.812Z,4.27
2023-02-12T00:52:40.674Z,4.33
2023-02-12T00:55:07.618Z,4.30
2023-02-12T00:57:34.285Z,4.33
2023-02-12T01:00:01.247Z,4.42
2023-02-12T01:02:31.101Z,4.36
2023-02-12T01:04:58.879Z,4.37
2023-02-12T01:07:25.804Z,4.27
2023-02-12T01:09:52.931Z,4.21
2023-02-12T01:12:25.857Z,4.21
2023-02-12T01:14:52.761Z,4.13
2023-02-12T01:17:19.444Z,3.99
2023-02-12T01:19:46.135Z,4.05
2023-02-12T01:22:13.091Z,4.06
2023-02-12T01:24:39.995Z,4.06
2023-02-12T01:27:06.747Z,4.05
2023-02-12T01:29:33.681Z,4.02
2023-02-12T01:32:03.944Z,3.95
2023-02-12T01:34:30.692Z,3.93
2023-02-12T01:36:58.329Z,4.01
2023-02-12T01:39:25.020Z,3.99
2023-02-12T01:41:51.715Z,4.07
2023-02-12T01:44:24.143Z,4.04
2023-02-12T01:46:57.175Z,4.06
2023-02-12T01:49:34.020Z,4.08
2023-02-12T01:52:29.769Z,4.08
2023-02-12T01:55:00.528Z,4.05
2023-02-12T01:57:31.414Z,4.12
2023-02-12T02:00:00.878Z,4.16
2023-02-12T02:02:28.868Z,4.07
2023-02-12T02:04:57.383Z,4.04
2023-02-12T02:07:24.414Z,3.79
2023-02-12T02:09:52.134Z,3.79
2023-02-12T02:12:37.369Z,3.78
2023-02-12T02:15:06.229Z,3.80
2023-02-12T02:17:35.874Z,3.86
2023-02-12T02:20:21.454Z,3.66
2023-02-12T02:28:43.610Z,3.66
2023-02-12T02:31:40.603Z,3.55
2023-02-12T02:34:36.727Z,3.44
2023-02-12T02:37:40.743Z,3.39
2023-02-12T02:40:18.400Z,3.29
2023-02-12T02:42:56.998Z,3.33
2023-02-12T02:45:49.851Z,3.29
2023-02-12T02:48:18.520Z,3.26
2023-02-12T02:50:52.860Z,2.96
2023-02-12T02:53:35.377Z,2.85
2023-02-12T02:56:06.400Z,2.95
2023-02-12T02:58:39.422Z,2.78
2023-02-12T03:01:18.235Z,2.78
2023-02-12T03:03:57.332Z,2.68
2023-02-12T03:06:57.419Z,2.52
2023-02-12T03:09:30.614Z,2.64
2023-02-12T03:12:03.879Z,2.75
2023-02-12T03:14:36.066Z,2.71
2023-02-12T03:17:08.330Z,2.61
2023-02-12T03:19:51.051Z,2.67
2023-02-12T03:22:31.602Z,2.51
2023-02-12T03:25:15.213Z,2.38
2023-02-12T03:27:49.290Z,2.38
2023-02-12T03:30:16.589Z,2.53
2023-02-12T03:32:57.045Z,2.53
2023-02-12T03:35:45.359Z,2.52
2023-02-12T03:38:37.745Z,2.45
2023-02-12T03:41:15.727Z,2.35
2023-02-12T03:43:57.361Z,2.35
2023-02-12T03:49:30.020Z,2.52
2023-02-12T03:51:58.511Z,2.53
2023-02-12T03:54:25.516Z,2.50
2023-02-12T03:56:56.190Z,2.48
2023-02-12T03:59:24.886Z,2.49
2023-02-12T04:01:54.324Z,2.57
2023-02-12T04:04:21.739Z,2.63
2023-02-12T04:06:50.609Z,2.78
2023-02-12T04:09:23.062Z,2.73
2023-02-12T04:11:57.052Z,2.67
2023-02-12T04:14:26.832Z,2.74
2023-02-12T04:16:56.125Z,2.68
2023-02-12T04:19:44.640Z,2.74
2023-02-12T04:22:23.477Z,2.71
2023-02-12T04:24:57.117Z,2.61
2023-02-12T04:27:54.153Z,2.56
2023-02-12T04:30:38.008Z,2.48
2023-02-12T04:33:11.129Z,2.54
2023-02-12T04:35:54.790Z,2.41
2023-02-12T04:38:32.295Z,2.60
2023-02-12T04:40:59.497Z,2.50
2023-02-12T04:43:31.147Z,2.38
2023-02-12T04:45:58.382Z,2.19
2023-02-12T04:48:25.742Z,2.13
2023-02-12T04:50:52.789Z,2.27
2023-02-12T04:53:23.069Z,2.20
2023-02-12T04:55:50.858Z,2.17
2023-02-12T04:58:18.536Z,2.09
2023-02-12T05:00:45.337Z,2.29
2023-02-12T05:03:12.019Z,2.18
2023-02-12T05:05:38.716Z,2.04
2023-02-12T05:08:05.628Z,2.12
2023-02-12T05:10:32.315Z,1.98
2023-02-12T05:12:59.193Z,2.11
2023-02-12T05:15:27.115Z,2.08
2023-02-12T05:17:54.807Z,1.72
2023-02-12T05:20:21.504Z,1.72
2023-02-12T05:22:52.457Z,1.79
2023-02-12T05:25:19.200Z,1.67
2023-02-12T05:27:46.009Z,1.76
2023-02-12T05:30:13.052Z,1.79
2023-02-12T05:32:39.851Z,1.55
2023-02-12T05:35:07.337Z,1.51
2023-02-12T05:37:37.444Z,1.49
2023-02-12T05:40:05.857Z,1.55
2023-02-12T05:42:32.841Z,1.74
2023-02-12T05:45:00.056Z,1.76
2023-02-12T05:47:26.798Z,1.78
2023-02-12T05:49:54.670Z,1.85
2023-02-12T05:52:21.589Z,1.92
2023-02-12T05:54:50.403Z,2.00
2023-02-12T05:57:17.369Z,1.98
2023-02-12T05:59:44.163Z,2.01
2023-02-12T06:02:10.952Z,2.08
2023-02-12T06:04:37.818Z,2.12
2023-02-12T06:07:04.707Z,2.12
2023-02-12T06:09:32.058Z,2.11
2023-02-12T06:11:58.824Z,2.18
2023-02-12T06:14:25.819Z,2.10
2023-02-12T06:16:53.024Z,2.08
2023-02-12T06:19:20.495Z,2.25
2023-02-12T06:21:51.513Z,2.24
2023-02-12T06:24:18.411Z,2.30
2023-02-12T06:26:45.980Z,2.25
2023-02-12T06:29:13.676Z,2.32
2023-02-12T06:31:41.123Z,2.48
2023-02-12T06:34:10.657Z,2.39
2023-02-12T06:36:42.032Z,2.36
2023-02-12T06:39:10.154Z,2.53
2023-02-12T06:41:37.195Z,2.52
2023-02-12T06:44:05.188Z,2.51
2023-02-12T06:46:31.997Z,2.59
2023-02-12T06:49:00.678Z,2.46
2023-02-12T06:51:29.147Z,2.54
2023-02-12T06:53:57.395Z,2.49
2023-02-12T06:56:25.779Z,2.60
2023-02-12T07:01:25.158Z,2.61
2023-02-12T07:03:57.212Z,2.72
2023-02-12T07:06:26.109Z,2.77
2023-02-12T07:08:52.972Z,2.80
2023-02-12T07:11:24.322Z,2.75
2023-02-12T07:13:51.240Z,2.85
2023-02-12T07:16:19.498Z,2.87
2023-02-12T07:18:47.069Z,2.81
2023-02-12T07:21:15.778Z,2.80
2023-02-12T07:23:50.394Z,2.90
2023-02-12T07:26:17.894Z,2.88
2023-02-12T07:28:44.927Z,3.09
2023-02-12T07:31:23.571Z,3.24
2023-02-12T07:36:22.561Z,3.19
2023-02-12T07:38:49.669Z,3.18
2023-02-12T07:41:25.857Z,2.95
2023-02-12T07:43:57.223Z,3.06
2023-02-12T07:46:32.125Z,3.20
2023-02-12T07:49:01.693Z,3.20
2023-02-12T07:51:33.233Z,2.99
2023-02-12T07:54:01.673Z,2.80
2023-02-12T07:56:33.139Z,3.15
2023-02-12T07:59:05.897Z,3.12
2023-02-12T08:01:41.826Z,3.39
2023-02-12T08:04:13.667Z,3.54
2023-02-12T08:06:46.680Z,3.58
2023-02-12T08:09:16.359Z,3.76
2023-02-12T08:11:44.148Z,3.38
2023-02-12T08:14:16.029Z,3.34
2023-02-12T08:16:44.285Z,3.59
2023-02-12T08:19:19.501Z,3.61
2023-02-12T08:24:24.359Z,3.70
2023-02-12T08:26:51.564Z,3.70
2023-02-12T08:29:22.053Z,3.68
2023-02-12T08:31:50.914Z,3.51
2023-02-12T08:34:20.445Z,3.56
2023-02-12T08:36:49.127Z,3.57
2023-02-12T08:39:16.820Z,3.43
2023-02-12T08:41:44.843Z,3.59
2023-02-12T08:44:12.729Z,4.01
2023-02-12T08:46:48.009Z,4.02
2023-02-12T08:49:17.845Z,4.12
2023-02-12T08:51:48.832Z,4.16
2023-02-12T08:54:27.043Z,4.29
2023-02-12T08:56:57.280Z,4.15
2023-02-12T08:59:24.632Z,4.38
2023-02-12T09:01:53.187Z,4.30
2023-02-12T09:04:23.022Z,4.41
2023-02-12T09:06:52.282Z,4.38
2023-02-12T09:09:19.982Z,4.21
2023-02-12T09:11:47.355Z,4.40
2023-02-12T09:14:17.131Z,4.63
2023-02-12T09:16:44.199Z,4.20
2023-02-12T09:19:13.835Z,4.59
2023-02-12T09:21:41.273Z,4.64
2023-02-12T09:24:08.606Z,4.85
2023-02-12T09:26:35.740Z,4.76
2023-02-12T09:29:05.429Z,5.06
2023-02-12T09:31:33.489Z,5.10
2023-02-12T09:34:04.453Z,5.09
2023-02-12T09:36:31.831Z,5.36
2023-02-12T09:38:59.595Z,5.05
2023-02-12T09:41:57.252Z,4.88
2023-02-12T09:44:54.927Z,5.45
2023-02-12T09:47:26.347Z,5.51
2023-02-12T09:49:57.563Z,5.53
2023-02-12T09:52:27.948Z,5.60
2023-02-12T09:54:57.810Z,5.92
2023-02-12T09:57:29.628Z,6.05
2023-02-12T09:59:57.278Z,6.06
2023-02-12T10:02:27.920Z,5.96
2023-02-12T10:07:43.401Z,6.66
2023-02-12T10:10:15.967Z,6.17
2023-02-12T10:12:56.316Z,6.73
2023-02-12T10:15:31.735Z,6.23
2023-02-12T10:18:26.173Z,6.61
2023-02-12T10:23:41.108Z,7.28
2023-02-12T10:26:22.342Z,7.31
2023-02-12T10:28:50.191Z,7.33
2023-02-12T10:31:30.256Z,8.01
2023-02-12T10:33:57.329Z,8.03
2023-02-12T10:36:35.867Z,8.05
2023-02-12T10:39:26.616Z,8.18
2023-02-12T10:41:56.387Z,7.58
2023-02-12T10:44:26.000Z,7.68
2023-02-12T10:46:52.970Z,7.76
2023-02-12T10:49:21.965Z,7.64
2023-02-12T10:51:57.410Z,7.72
2023-02-12T10:54:45.141Z,8.28
2023-02-12T10:57:17.947Z,8.56
2023-02-12T10:59:46.889Z,8.91
2023-02-12T11:02:30.613Z,9.28
2023-02-12T11:04:59.821Z,9.68
2023-02-12T11:07:28.043Z,9.61
2023-02-12T11:09:57.467Z,9.93
2023-02-12T11:12:41.605Z,9.85
2023-02-12T11:15:16.547Z,9.03
2023-02-12T11:17:46.400Z,9.60
2023-02-12T11:20:18.840Z,9.15
2023-02-12T11:22:54.865Z,9.69
2023-02-12T11:25:23.226Z,9.68
2023-02-12T11:27:57.473Z,9.43
2023-02-12T11:30:24.818Z,9.62
2023-02-12T11:32:52.610Z,9.95
2023-02-12T11:35:25.913Z,8.74
2023-02-12T11:37:56.372Z,9.71
2023-02-12T11:40:27.874Z,9.89
2023-02-12T11:42:56.422Z,10.00
2023-02-12T11:45:32.059Z,10.43
2023-02-12T11:47:59.654Z,10.60
2023-02-12T11:50:34.677Z,10.00
2023-02-12T11:53:10.023Z,10.19
2023-02-12T11:55:40.228Z,10.58
2023-02-12T11:58:15.320Z,10.69
2023-02-12T12:03:41.771Z,12.20
2023-02-12T12:06:26.918Z,11.85
2023-02-12T12:08:57.447Z,11.74
2023-02-12T12:11:31.686Z,13.50
2023-02-12T12:13:58.614Z,14.77
2023-02-12T12:19:53.284Z,17.87
2023-02-12T12:22:29.643Z,15.30
2023-02-12T12:24:57.446Z,12.87
2023-02-12T12:27:57.913Z,13.11
2023-02-12T12:30:29.310Z,12.16
2023-02-12T12:32:56.435Z,11.96
2023-02-12T12:35:37.154Z,11.97
2023-02-12T12:38:21.310Z,9.60
2023-02-12T12:40:57.433Z,10.20
2023-02-12T12:43:33.274Z,10.66
2023-02-12T12:46:28.572Z,10.59
2023-02-12T12:48:56.375Z,10.33
2023-02-12T12:51:57.353Z,10.75
2023-02-12T12:54:36.450Z,10.69
2023-02-12T12:57:35.156Z,10.63
2023-02-12T13:00:25.433Z,10.48
2023-02-12T13:02:57.493Z,10.55
2023-02-12T13:08:43.915Z,9.93
2023-02-12T13:11:20.541Z,9.96
2023-02-12T13:13:51.939Z,9.87
2023-02-12T13:16:40.321Z,10.01
2023-02-12T13:19:20.968Z,9.67
2023-02-12T13:21:57.491Z,9.64
2023-02-12T13:24:37.769Z,9.74
2023-02-12T13:27:42.918Z,9.71
2023-02-12T13:30:24.355Z,9.63
2023-02-12T13:32:57.599Z,9.54
2023-02-12T13:35:26.450Z,9.39
2023-02-12T13:37:54.711Z,9.31
2023-02-12T13:40:29.294Z,9.42
2023-02-12T13:42:57.454Z,9.08
2023-02-12T13:45:52.020Z,9.09
2023-02-12T13:48:40.639Z,8.94
2023-02-12T13:51:50.634Z,9.22
2023-02-12T13:54:50.052Z,9.22
2023-02-12T13:57:19.871Z,8.88
2023-02-12T13:59:49.524Z,8.81
2023-02-12T14:02:49.578Z,8.92
2023-02-12T14:05:29.606Z,8.90
2023-02-12T14:07:57.601Z,9.01
2023-02-12T14:10:41.103Z,8.85
2023-02-12T14:13:34.388Z,8.68
2023-02-12T14:16:38.935Z,8.94
2023-02-12T14:19:36.694Z,8.90
2023-02-12T14:22:14.752Z,8.69
2023-02-12T14:27:34.774Z,8.61
2023-02-12T14:30:10.586Z,8.69
2023-02-12T14:32:57.650Z,8.59
2023-02-12T14:35:30.799Z,8.71
2023-02-12T14:37:58.843Z,8.77
2023-02-12T14:40:47.280Z,8.62
2023-02-12T14:43:29.278Z,8.63
2023-02-12T14:45:57.849Z,8.70
2023-02-12T14:48:53.410Z,8.68
2023-02-12T14:51:29.295Z,8.68
2023-02-12T14:56:23.916Z,8.48
2023-02-12T14:58:55.033Z,8.32
2023-02-12T15:01:36.598Z,8.22
2023-02-12T15:04:13.384Z,8.29
2023-02-12T15:06:49.415Z,8.29
2023-02-12T15:09:42.947Z,8.32
2023-02-12T15:12:22.550Z,8.41
2023-02-12T15:14:57.582Z,8.24
2023-02-12T15:17:33.653Z,8.22
2023-02-12T15:20:19.905Z,8.34
2023-02-12T15:22:47.405Z,8.31
2023-02-12T15:25:24.658Z,8.24
2023-02-12T15:27:57.543Z,8.13
2023-02-12T15:30:30.716Z,8.18
2023-02-12T15:33:00.837Z,8.07
2023-02-12T15:35:33.834Z,8.01
2023-02-12T15:38:02.101Z,8.01
2023-02-12T15:40:30.702Z,7.85
2023-02-12T15:43:00.663Z,7.92
2023-02-12T15:45:32.605Z,8.00
2023-02-12T15:48:02.195Z,7.95
2023-02-12T15:50:31.191Z,7.87
2023-02-12T15:53:01.919Z,7.97
2023-02-12T15:55:34.874Z,7.95
2023-02-12T15:58:02.207Z,7.95
2023-02-12T16:00:44.726Z,7.88
2023-02-12T16:03:32.045Z,7.81
2023-02-12T16:06:13.959Z,7.80
2023-02-12T16:08:44.090Z,7.85
2023-02-12T16:11:16.132Z,7.89
2023-02-12T16:13:50.194Z,7.89
2023-02-12T16:16:22.051Z,7.89
2023-02-12T16:18:57.489Z,7.86
2023-02-12T16:21:24.493Z,7.87
2023-02-12T16:23:53.937Z,7.86
2023-02-12T16:26:25.061Z,7.78
2023-02-12T16:28:57.959Z,7.81
2023-02-12T16:31:28.148Z,7.79
2023-02-12T16:33:59.490Z,7.75
2023-02-12T16:36:26.452Z,7.72
2023-02-12T16:41:38.594Z,7.75
2023-02-12T16:44:05.262Z,7.71
2023-02-12T16:46:34.897Z,7.71
2023-02-12T16:49:02.749Z,7.72
2023-02-12T16:51:33.423Z,7.69
2023-02-12T16:54:02.794Z,7.69
2023-02-12T16:56:34.334Z,7.75
2023-02-12T16:59:05.763Z,7.69
2023-02-12T17:01:35.548Z,7.65
2023-02-12T17:04:09.329Z,7.65
2023-02-12T17:06:35.998Z,7.65
2023-02-12T17:09:02.765Z,7.60
2023-02-12T17:11:30.403Z,7.62
2023-02-12T17:13:57.626Z,7.60
2023-02-12T17:16:31.179Z,7.54
2023-02-12T17:18:59.468Z,7.49
2023-02-12T17:21:32.702Z,7.51
2023-02-12T17:24:00.128Z,7.43
2023-02-12T17:26:27.446Z,7.46
2023-02-12T17:31:22.183Z,7.48
2023-02-12T17:33:48.961Z,7.44
2023-02-12T17:36:16.839Z,7.40
2023-02-12T17:38:43.751Z,7.42
2023-02-12T17:41:11.422Z,7.41
2023-02-12T17:43:38.629Z,7.42
2023-02-12T17:46:13.266Z,7.38
2023-02-12T17:48:40.905Z,7.41
2023-02-12T17:51:10.250Z,7.46
2023-02-12T17:53:37.638Z,7.37
2023-02-12T17:56:05.797Z,7.38
2023-02-12T17:58:32.806Z,7.26
2023-02-12T18:01:05.706Z,7.29
2023-02-12T18:03:32.654Z,7.31
2023-02-12T18:05:59.661Z,7.37
2023-02-12T18:08:26.569Z,7.24
2023-02-12T18:13:43.979Z,7.27
2023-02-12T18:16:14.189Z,7.27
2023-02-12T18:18:41.277Z,7.25
2023-02-12T18:21:16.210Z,7.17
2023-02-12T18:23:47.184Z,7.22
2023-02-12T18:26:16.953Z,7.17
2023-02-12T18:28:44.115Z,7.16
2023-02-12T18:31:11.702Z,7.10
2023-02-12T18:33:42.544Z,7.10
2023-02-12T18:36:21.478Z,7.01
2023-02-12T18:38:50.799Z,7.04
2023-02-12T18:41:20.908Z,7.09
2023-02-12T18:43:48.086Z,7.04
2023-02-12T18:46:21.364Z,6.99
2023-02-12T18:48:48.555Z,6.91
2023-02-12T18:51:19.044Z,6.96
2023-02-12T18:53:48.865Z,6.86
2023-02-12T18:56:19.087Z,6.86
2023-02-12T18:58:46.378Z,6.86
2023-02-12T19:01:15.958Z,6.85
2023-02-12T19:03:45.133Z,6.72
2023-02-12T19:06:12.401Z,6.79
2023-02-12T19:08:39.656Z,6.66
2023-02-12T19:11:07.926Z,6.67
2023-02-12T19:13:35.298Z,6.67
2023-02-12T19:16:14.896Z,6.69
2023-02-12T19:18:42.080Z,6.65
2023-02-12T19:21:12.200Z,6.67
2023-02-12T19:23:43.128Z,6.56
2023-02-12T19:26:23.933Z,6.48
2023-02-12T19:28:51.649Z,6.43
2023-02-12T19:31:24.139Z,6.42
2023-02-12T19:33:59.394Z,6.39
2023-02-12T19:36:28.686Z,6.29
2023-02-12T19:41:24.917Z,6.18
2023-02-12T19:44:00.576Z,6.11
2023-02-12T19:46:29.876Z,6.07
2023-02-12T19:48:58.567Z,5.98
2023-02-12T19:51:26.647Z,5.91
2023-02-12T19:53:54.268Z,5.83
2023-02-12T19:56:21.047Z,5.84
2023-02-12T19:58:47.967Z,5.78
2023-02-12T20:01:18.425Z,5.75
2023-02-12T20:03:49.252Z,5.71
2023-02-12T20:06:22.162Z,5.69
2023-02-12T20:08:52.024Z,5.67
2023-02-12T20:11:25.059Z,5.62
2023-02-12T20:13:52.193Z,5.58
2023-02-12T20:16:22.328Z,5.58
2023-02-12T20:18:52.127Z,5.56
2023-02-12T20:21:25.630Z,5.61
2023-02-12T20:23:53.485Z,5.62
2023-02-12T20:26:20.942Z,5.68
2023-02-12T20:28:49.624Z,5.64
2023-02-12T20:31:26.934Z,5.64
2023-02-12T20:33:57.651Z,5.65
2023-02-12T20:36:25.924Z,5.63
2023-02-12T20:41:24.310Z,5.61
2023-02-12T20:43:51.365Z,5.62
2023-02-12T20:46:23.804Z,5.58
2023-02-12T20:48:50.611Z,5.52
2023-02-12T20:51:23.537Z,5.42
2023-02-12T20:53:51.779Z,5.18
2023-02-12T20:56:20.798Z,5.16
2023-02-12T20:58:48.523Z,5.21
2023-02-12T21:01:25.564Z,5.17
2023-02-12T21:06:24.763Z,5.17
2023-02-12T21:08:52.190Z,5.12
2023-02-12T21:11:22.343Z,5.10
2023-02-12T21:14:02.313Z,5.01
2023-02-12T21:16:28.215Z,5.08
2023-02-12T21:21:29.345Z,4.98
2023-02-12T21:23:57.072Z,4.95
2023-02-12T21:26:35.752Z,4.95
2023-02-12T21:29:06.939Z,4.87
2023-02-12T21:31:42.215Z,4.79
2023-02-12T21:34:13.900Z,4.62
2023-02-12T21:36:45.315Z,4.61
2023-02-12T21:39:25.117Z,4.58
2023-02-12T21:41:55.209Z,4.53
2023-02-12T21:44:24.174Z,4.51
2023-02-12T21:49:30.110Z,4.41
2023-02-12T21:52:02.406Z,4.32
2023-02-12T21:54:30.867Z,4.30
2023-02-12T21:56:59.604Z,4.17
2023-02-12T21:59:26.913Z,4.05
2023-02-12T22:04:22.441Z,4.01
2023-02-12T22:06:51.645Z,3.92
2023-02-12T22:09:21.862Z,3.88
2023-02-12T22:11:49.031Z,3.74
2023-02-12T22:14:17.816Z,3.85
2023-02-12T22:16:45.167Z,3.94
2023-02-12T22:19:12.106Z,3.95
2023-02-12T22:21:40.722Z,3.99
2023-02-12T22:24:09.718Z,4.05
2023-02-12T22:26:36.779Z,4.09
2023-02-12T22:29:07.610Z,4.11
2023-02-12T22:31:40.946Z,4.16
2023-02-12T22:34:14.188Z,4.14
2023-02-12T22:36:42.661Z,4.15
2023-02-12T22:39:11.496Z,4.21
2023-02-12T22:41:39.224Z,4.29
2023-02-12T22:44:10.066Z,4.29
2023-02-12T22:46:36.913Z,4.43
2023-02-12T22:49:04.648Z,4.41
2023-02-12T22:51:33.641Z,4.41
2023-02-12T22:54:00.706Z,4.37
2023-02-12T22:56:27.585Z,4.38
2023-02-12T22:58:57.902Z,4.46
2023-02-12T23:01:26.052Z,4.38
2023-02-12T23:03:53.885Z,4.35
2023-02-12T23:06:23.851Z,4.36
2023-02-12T23:08:52.999Z,4.21
2023-02-12T23:11:20.752Z,4.24
2023-02-12T23:13:47.917Z,4.25
2023-02-12T23:16:14.975Z,4.27
2023-02-12T23:18:42.088Z,4.16
2023-02-12T23:21:09.292Z,4.31
2023-02-12T23:23:36.112Z,4.19
2023-02-12T23:26:06.924Z,4.12
2023-02-12T23:28:33.975Z,4.07
2023-02-12T23:31:02.617Z,3.97
2023-02-12T23:33:32.685Z,3.87
2023-02-12T23:36:02.169Z,3.67
2023-02-12T23:38:28.957Z,3.73
2023-02-12T23:43:32.931Z,3.40
2023-02-12T23:46:00.453Z,3.30
2023-02-12T23:48:29.007Z,3.30
2023-02-12T23:53:25.260Z,3.29
2023-02-12T23:55:52.571Z,3.13
2023-02-12T23:58:19.845Z,2.93
